Time;durP1;ratioP1;P1;durP2;ratioP2;P2;SDS_P1;SDS_P2;PMS_P1;PMS_P2;Temp;Humidity;BMP_temperature;BMP_pressure;BME280_temperature;BME280_humidity;BME280_pressure;Samples;Min_cycle;Max_cycle;Signal;HPM_P1;HPM_P2
2021/05/02 00:01:17;;;;;;;12.75;10.10;;;;;;;15.38;71.66;98888.37;1718161;82;22154;-42
2021/05/02 00:03:45;;;;;;;11.88;8.80;;;;;;;15.41;71.54;98877.99;1744113;82;21171;-42
2021/05/02 00:06:13;;;;;;;14.78;9.63;;;;;;;15.44;71.34;98875.84;1748055;81;21020;-42
2021/05/02 00:08:43;;;;;;;12.73;10.73;;;;;;;15.43;71.26;98868.81;1728187;82;21221;-42
2021/05/02 00:11:11;;;;;;;12.45;10.30;;;;;;;15.40;71.32;98868.23;1748420;82;21445;-42
2021/05/02 00:13:41;;;;;;;11.00;9.25;;;;;;;15.39;71.34;98862.61;1721135;82;21020;-42
2021/05/02 00:16:09;;;;;;;15.95;9.55;;;;;;;15.36;71.42;98856.58;1718027;83;21469;-42
2021/05/02 00:18:37;;;;;;;11.10;9.60;;;;;;;15.35;71.46;98848.97;1718688;82;21059;-42
2021/05/02 00:21:10;;;;;;;18.05;10.63;;;;;;;15.32;71.60;98852.52;1718024;82;21206;-42
2021/05/02 00:23:41;;;;;;;11.50;9.33;;;;;;;14.92;71.68;98804.84;1739339;82;21931;-42
2021/05/02 00:26:09;;;;;;;10.93;8.53;;;;;;;15.25;71.80;98854.53;1743079;82;22257;-42
2021/05/02 00:28:44;;;;;;;10.08;8.15;;;;;;;15.27;71.78;98852.95;1732626;82;21186;-42
2021/05/02 00:31:13;;;;;;;11.68;9.40;;;;;;;15.32;71.78;98854.47;1719940;82;21236;-42
2021/05/02 00:33:43;;;;;;;9.85;7.70;;;;;;;15.29;71.87;98841.63;1718327;82;21195;-42
2021/05/02 00:36:11;;;;;;;9.63;7.92;;;;;;;15.21;72.12;98840.30;1691693;83;21158;-42
2021/05/02 00:38:40;;;;;;;10.20;8.23;;;;;;;15.15;72.36;98835.08;1719412;82;21214;-42
2021/05/02 00:41:15;;;;;;;13.28;8.00;;;;;;;15.18;72.50;98832.93;1745624;82;21047;-42
2021/05/02 00:44:03;;;;;;;10.75;8.23;;;;;;;15.19;72.51;98833.13;1723509;81;21157;-42
2021/05/02 00:46:39;;;;;;;9.35;7.55;;;;;;;15.16;72.52;98829.81;1730346;82;21503;-42
2021/05/02 00:49:17;;;;;;;8.73;6.95;;;;;;;15.20;72.46;98831.92;1735365;82;21182;-42
2021/05/02 00:51:47;;;;;;;10.10;7.42;;;;;;;15.27;72.31;98827.59;1730271;82;21206;-42
2021/05/02 00:54:35;;;;;;;11.10;7.20;;;;;;;15.31;72.11;98824.23;1740013;82;21182;-42
2021/05/02 00:57:08;;;;;;;8.48;7.55;;;;;;;15.33;72.02;98824.03;1738247;82;21158;-42
2021/05/02 01:00:06;;;;;;;8.30;6.95;;;;;;;15.34;72.03;98819.34;1721718;82;21179;-42
2021/05/02 01:02:35;;;;;;;8.35;6.50;;;;;;;15.31;72.02;98820.13;1722880;82;21170;-42
2021/05/02 01:05:10;;;;;;;8.63;6.97;;;;;;;15.33;71.95;98829.48;1743230;81;21370;-42
2021/05/02 01:07:43;;;;;;;8.03;7.00;;;;;;;15.39;71.80;98822.42;1731079;82;21175;-42
2021/05/02 01:10:18;;;;;;;8.78;6.97;;;;;;;15.42;71.66;98826.28;1712514;82;21143;-42
2021/05/02 01:12:52;;;;;;;8.05;6.45;;;;;;;15.43;71.54;98823.16;1721621;82;21183;-43
2021/05/02 01:15:26;;;;;;;8.20;6.45;;;;;;;15.43;71.44;98821.80;1704417;84;21170;-42
2021/05/02 01:18:07;;;;;;;7.10;6.40;;;;;;;15.49;71.29;98826.23;1710456;82;21183;-42
2021/05/02 01:20:38;;;;;;;7.90;6.30;;;;;;;15.49;71.27;98825.61;1733679;82;21143;-42
2021/05/02 01:23:19;;;;;;;7.53;6.72;;;;;;;15.46;71.35;98822.92;1726669;82;21442;-42
2021/05/02 01:25:51;;;;;;;8.35;6.47;;;;;;;15.46;71.37;98827.02;1702334;84;21190;-42
2021/05/02 01:28:20;;;;;;;7.72;6.15;;;;;;;15.50;71.25;98825.81;1708163;82;21155;-42
2021/05/02 01:30:49;;;;;;;5.30;4.80;;;;;;;15.56;71.15;98826.18;1704598;84;21280;-42
2021/05/02 01:33:18;;;;;;;7.83;6.47;;;;;;;15.61;70.92;98817.55;1712430;82;28522;-42
2021/05/02 01:35:47;;;;;;;9.90;6.67;;;;;;;15.59;70.89;98815.80;1704487;84;21595;-42
2021/05/02 01:38:15;;;;;;;6.75;6.05;;;;;;;15.55;71.00;98815.84;1706833;82;21136;-42
2021/05/02 01:40:43;;;;;;;6.60;5.90;;;;;;;15.57;70.93;98816.80;1704424;84;21147;-42
2021/05/02 01:43:11;;;;;;;6.90;5.85;;;;;;;15.60;70.77;98815.40;1705971;82;21364;-42
2021/05/02 01:45:39;;;;;;;9.00;6.80;;;;;;;15.64;70.57;98812.63;1709951;82;21181;-42
2021/05/02 01:48:08;;;;;;;7.30;6.47;;;;;;;15.61;70.52;98810.13;1711209;82;21195;-42
2021/05/02 01:50:56;;;;;;;10.00;7.10;;;;;;;15.58;70.57;98797.88;1732613;82;21127;-42
2021/05/02 01:53:24;;;;;;;7.25;6.15;;;;;;;15.51;70.70;98802.03;1725600;82;21199;-42
2021/05/02 01:55:53;;;;;;;6.72;6.03;;;;;;;15.46;70.87;98792.88;1721120;82;21295;-42
2021/05/02 01:58:21;;;;;;;9.20;6.40;;;;;;;15.45;70.84;98793.46;1724533;81;21675;-42
2021/05/02 02:00:56;;;;;;;8.23;7.33;;;;;;;15.47;70.92;98793.06;1713451;82;21211;-42
2021/05/02 02:03:25;;;;;;;7.12;6.42;;;;;;;15.41;71.04;98784.53;1683462;84;21166;-42
2021/05/02 02:05:53;;;;;;;6.65;5.50;;;;;;;15.34;71.21;98783.25;1675183;82;21119;-42
2021/05/02 02:08:21;;;;;;;7.47;5.70;;;;;;;15.33;71.08;98787.75;1714894;82;21473;-42
2021/05/02 02:10:49;;;;;;;6.92;5.75;;;;;;;15.35;70.88;98785.37;1713917;82;21190;-42
2021/05/02 02:13:18;;;;;;;7.30;6.45;;;;;;;15.37;70.88;98785.75;1704355;82;21177;-42
2021/05/02 02:15:46;;;;;;;7.67;6.00;;;;;;;15.35;70.69;98782.63;1707644;82;21626;-42
2021/05/02 02:18:16;;;;;;;6.85;5.87;;;;;;;15.30;71.00;98781.73;1726125;82;21120;-42
2021/05/02 02:20:46;;;;;;;6.50;5.85;;;;;;;15.27;71.05;98781.16;1704588;84;22373;-42
2021/05/02 02:23:25;;;;;;;6.67;5.75;;;;;;;15.28;70.87;98787.59;1700077;82;21175;-42
2021/05/02 02:25:54;;;;;;;7.80;5.83;;;;;;;15.31;70.83;98777.80;1720932;82;21187;-42
2021/05/02 02:28:22;;;;;;;7.10;6.08;;;;;;;15.31;70.95;98779.95;1706288;82;21171;-42
2021/05/02 02:30:58;;;;;;;6.45;5.30;;;;;;;15.28;70.98;98773.16;1704271;84;21171;-42
2021/05/02 02:33:31;;;;;;;7.95;5.37;;;;;;;15.25;70.94;98768.52;1706165;82;21379;-42
2021/05/02 02:35:59;;;;;;;6.22;5.42;;;;;;;15.22;71.04;98762.67;1704393;84;21198;-42
2021/05/02 02:38:28;;;;;;;8.15;5.90;;;;;;;15.20;71.04;98760.92;1729696;82;21179;-42
2021/05/02 02:40:57;;;;;;;7.12;5.22;;;;;;;15.19;71.12;98748.47;1732721;81;21893;-42
2021/05/02 02:43:31;;;;;;;5.97;4.80;;;;;;;15.12;71.34;98751.26;1724563;82;21179;-42
2021/05/02 02:46:04;;;;;;;7.45;5.37;;;;;;;15.06;71.67;98755.59;1670462;84;22137;-42
2021/05/02 02:48:34;;;;;;;6.28;5.22;;;;;;;15.08;71.60;98753.25;1668010;84;21071;-42
2021/05/02 02:51:03;;;;;;;8.53;5.75;;;;;;;15.11;71.54;98753.80;1665786;86;21461;-42
2021/05/02 02:53:33;;;;;;;7.05;5.58;;;;;;;15.09;71.55;98764.36;1675242;84;21186;-42
2021/05/02 02:56:06;;;;;;;7.08;5.47;;;;;;;15.08;71.61;98768.85;1693730;84;21194;-42
2021/05/02 02:58:43;;;;;;;6.15;5.55;;;;;;;15.10;71.56;98767.88;1677801;84;21481;-42
2021/05/02 03:01:11;;;;;;;6.42;5.70;;;;;;;15.12;71.47;98770.38;1676035;84;22121;-42
2021/05/02 03:03:43;;;;;;;6.53;5.22;;;;;;;15.14;71.46;98768.02;1665818;84;21640;-42
2021/05/02 03:06:11;;;;;;;8.20;5.30;;;;;;;15.14;71.39;98774.07;1665853;84;21186;-42
2021/05/02 03:08:40;;;;;;;6.23;5.07;;;;;;;15.14;71.41;98781.67;1687568;84;21229;-42
2021/05/02 03:11:08;;;;;;;6.25;5.05;;;;;;;15.17;71.50;98786.32;1668517;84;21962;-42
2021/05/02 03:13:36;;;;;;;6.65;5.33;;;;;;;15.20;71.59;98777.92;1686100;84;21585;-42
2021/05/02 03:16:05;;;;;;;9.50;6.00;;;;;;;15.20;71.75;98772.46;1692709;84;21239;-42
2021/05/02 03:18:45;;;;;;;6.60;5.30;;;;;;;15.14;71.86;98774.84;1693019;84;21617;-42
2021/05/02 03:21:13;;;;;;;7.70;5.17;;;;;;;15.12;71.97;98781.87;1715648;82;21700;-42
2021/05/02 03:23:42;;;;;;;5.62;4.55;;;;;;;15.11;72.07;98787.92;1707181;82;23523;-42
2021/05/02 03:26:12;;;;;;;7.65;5.62;;;;;;;15.10;72.22;98779.55;1730372;82;21422;-42
2021/05/02 03:28:47;;;;;;;6.20;5.45;;;;;;;15.09;72.43;98777.23;1734622;82;21175;-42
2021/05/02 03:31:15;;;;;;;7.00;5.17;;;;;;;15.07;72.65;98780.36;1712036;83;21151;-42
2021/05/02 03:33:47;;;;;;;7.17;5.10;;;;;;;15.08;72.92;98790.11;1700606;82;21155;-42
2021/05/02 03:36:19;;;;;;;7.65;5.67;;;;;;;15.10;73.05;98789.09;1712800;82;22579;-42
2021/05/02 03:38:49;;;;;;;7.10;4.75;;;;;;;15.15;73.13;98786.55;1720965;82;21199;-42
2021/05/02 03:41:18;;;;;;;6.10;5.05;;;;;;;15.22;73.22;98785.88;1718834;81;21218;-42
2021/05/02 03:43:47;;;;;;;6.40;5.20;;;;;;;15.32;73.14;98783.45;1718035;82;21143;-42
2021/05/02 03:46:24;;;;;;;7.92;5.65;;;;;;;15.37;73.07;98781.06;1720091;82;21166;-42
2021/05/02 03:48:57;;;;;;;7.75;5.40;;;;;;;15.43;73.07;98781.41;1719481;82;21202;-42
2021/05/02 03:51:27;;;;;;;7.33;5.00;;;;;;;15.47;73.07;98767.89;1734159;82;21204;-42
2021/05/02 03:53:55;;;;;;;7.15;5.25;;;;;;;15.53;73.10;98764.94;1717720;82;21147;-42
2021/05/02 03:56:44;;;;;;;6.95;5.28;;;;;;;15.67;72.94;98764.00;1731565;82;21986;-42
2021/05/02 03:59:20;;;;;;;7.67;5.50;;;;;;;15.47;72.74;98717.95;1721393;82;21154;-42
2021/05/02 04:01:58;;;;;;;7.50;5.70;;;;;;;15.74;72.83;98756.30;1719369;82;21277;-42
2021/05/02 04:04:32;;;;;;;15.70;5.30;;;;;;;15.76;72.92;98751.98;1722461;82;21194;-42
2021/05/02 04:07:03;;;;;;;6.87;5.30;;;;;;;15.85;72.74;98755.00;1730110;80;21609;-42
2021/05/02 04:09:33;;;;;;;8.85;5.20;;;;;;;15.95;72.67;98750.00;1733729;81;21198;-42
2021/05/02 04:12:07;;;;;;;7.12;5.55;;;;;;;16.02;72.52;98749.14;1723805;82;21621;-42
2021/05/02 04:14:35;;;;;;;8.83;5.53;;;;;;;16.07;72.35;98752.17;1719380;82;22289;-42
2021/05/02 04:17:06;;;;;;;9.05;5.58;;;;;;;16.14;72.15;98753.27;1716057;82;21196;-43
2021/05/02 04:19:37;;;;;;;8.55;5.40;;;;;;;16.18;72.01;98748.52;1716965;82;21016;-42
2021/05/02 04:22:05;;;;;;;6.50;5.67;;;;;;;16.24;71.94;98745.52;1720278;82;21242;-42
2021/05/02 04:24:33;;;;;;;6.10;5.20;;;;;;;16.28;71.89;98736.66;1714508;82;21171;-42
2021/05/02 04:27:02;;;;;;;8.15;5.28;;;;;;;16.32;71.69;98731.33;1718668;82;21366;-42
2021/05/02 04:29:32;;;;;;;7.37;5.30;;;;;;;16.34;71.51;98730.92;1716292;82;21194;-42
2021/05/02 04:32:01;;;;;;;6.87;5.37;;;;;;;16.40;71.46;98738.85;1729267;82;21489;-42
2021/05/02 04:34:29;;;;;;;6.90;5.28;;;;;;;16.48;71.27;98751.23;1714454;82;21174;-42
2021/05/02 04:36:57;;;;;;;7.37;5.78;;;;;;;16.50;71.21;98752.38;1727021;82;21150;-42
2021/05/02 04:39:28;;;;;;;7.20;5.40;;;;;;;16.51;71.09;98758.02;1728600;82;21191;-42
2021/05/02 04:41:56;;;;;;;7.75;5.50;;;;;;;16.50;71.07;98746.13;1704667;82;21617;-42
2021/05/02 04:44:24;;;;;;;7.33;5.37;;;;;;;16.51;71.01;98753.13;1729283;82;21146;-42
2021/05/02 04:46:53;;;;;;;8.15;5.28;;;;;;;16.58;70.86;98757.73;1725349;82;22196;-42
2021/05/02 04:49:22;;;;;;;7.50;5.60;;;;;;;16.60;70.74;98750.70;1717735;82;21747;-42
2021/05/02 04:51:50;;;;;;;8.53;5.72;;;;;;;16.60;70.71;98743.86;1705014;82;21374;-42
2021/05/02 04:54:20;;;;;;;7.97;5.03;;;;;;;16.60;70.81;98745.82;1709548;82;21072;-42
2021/05/02 04:56:48;;;;;;;6.37;5.40;;;;;;;16.64;70.84;98749.27;1710978;82;26678;-42
2021/05/02 04:59:16;;;;;;;6.15;5.17;;;;;;;16.69;70.70;98745.48;1738979;81;21628;-42
2021/05/02 05:01:44;;;;;;;6.55;5.85;;;;;;;16.75;70.67;98736.95;1730011;81;21167;-42
2021/05/02 05:04:14;;;;;;;9.23;5.42;;;;;;;16.79;70.52;98736.33;1711728;82;21365;-42
2021/05/02 05:06:42;;;;;;;11.10;5.60;;;;;;;16.81;70.53;98744.88;1707937;81;21190;-42
2021/05/02 05:09:10;;;;;;;6.80;5.03;;;;;;;16.82;70.37;98753.28;1738504;81;21166;-42
2021/05/02 05:11:38;;;;;;;10.13;5.40;;;;;;;16.80;70.37;98749.39;1748929;81;21166;-44
2021/05/02 05:14:07;;;;;;;8.10;5.45;;;;;;;16.85;70.35;98749.70;1736560;81;21143;-43
2021/05/02 05:16:38;;;;;;;7.45;5.45;;;;;;;16.91;70.19;98743.94;1740440;81;21219;-42
2021/05/02 05:19:07;;;;;;;7.22;5.47;;;;;;;16.93;70.02;98731.98;1728953;81;21570;-43
2021/05/02 05:21:35;;;;;;;6.97;5.47;;;;;;;16.95;70.16;98737.80;1752402;81;21170;-43
2021/05/02 05:24:05;;;;;;;9.10;5.42;;;;;;;16.99;69.74;98735.61;1747738;81;21458;-43
2021/05/02 05:26:33;;;;;;;8.03;5.45;;;;;;;17.08;69.75;98748.17;1741070;81;21185;-43
2021/05/02 05:29:01;;;;;;;7.87;5.78;;;;;;;17.14;69.42;98747.84;1743775;81;22238;-43
2021/05/02 05:31:29;;;;;;;8.48;5.75;;;;;;;17.18;69.42;98750.73;1726373;81;21170;-41
2021/05/02 05:33:57;;;;;;;9.43;6.15;;;;;;;17.24;69.11;98760.59;1727480;81;21201;-41
2021/05/02 05:36:27;;;;;;;8.78;5.35;;;;;;;17.23;68.92;98751.59;1731789;81;21058;-42
2021/05/02 05:38:56;;;;;;;6.83;5.25;;;;;;;17.22;68.87;98746.55;1728863;81;21150;-42
2021/05/02 05:41:23;;;;;;;9.23;5.75;;;;;;;17.27;68.98;98739.22;1725654;81;21422;-42
2021/05/02 05:43:53;;;;;;;8.93;6.15;;;;;;;17.32;68.75;98735.41;1744687;81;21165;-41
2021/05/02 05:46:20;;;;;;;12.25;6.45;;;;;;;17.34;68.91;98733.00;1742751;81;21174;-42
2021/05/02 05:48:50;;;;;;;7.85;5.87;;;;;;;17.40;68.85;98720.97;1725496;81;21197;-43
2021/05/02 05:51:19;;;;;;;9.25;5.65;;;;;;;17.48;68.25;98717.48;1725276;81;21194;-41
2021/05/02 05:53:47;;;;;;;9.03;5.67;;;;;;;17.52;67.94;98721.73;1733334;81;21204;-41
2021/05/02 05:56:15;;;;;;;9.83;5.58;;;;;;;17.55;68.06;98726.36;1727498;81;21174;-42
2021/05/02 05:58:44;;;;;;;8.53;6.10;;;;;;;17.54;67.97;98726.17;1726256;81;22226;-42
2021/05/02 06:01:12;;;;;;;7.55;5.78;;;;;;;17.55;67.87;98715.39;1725621;81;21122;-43
2021/05/02 06:03:41;;;;;;;9.30;6.05;;;;;;;17.57;67.92;98708.13;1748992;81;21182;-43
2021/05/02 06:06:09;;;;;;;7.70;5.30;;;;;;;17.59;67.68;98712.61;1754534;81;22290;-43
2021/05/02 06:08:38;;;;;;;8.98;5.87;;;;;;;17.65;67.57;98702.11;1747821;81;21210;-43
2021/05/02 06:11:09;;;;;;;8.85;6.35;;;;;;;17.73;67.64;98707.61;1747036;82;21187;-43
2021/05/02 06:13:37;;;;;;;8.33;6.03;;;;;;;17.85;67.14;98706.80;1747078;82;21196;-43
2021/05/02 06:16:06;;;;;;;10.20;6.72;;;;;;;17.93;67.05;98715.81;1722454;82;21182;-43
2021/05/02 06:18:33;;;;;;;7.62;6.00;;;;;;;17.99;66.43;98705.13;1727812;82;21193;-43
2021/05/02 06:21:01;;;;;;;7.50;5.50;;;;;;;17.99;66.38;98707.27;1747587;82;21154;-43
2021/05/02 06:23:29;;;;;;;10.13;5.85;;;;;;;18.04;66.61;98712.86;1747583;82;21158;-43
2021/05/02 06:25:57;;;;;;;9.23;6.17;;;;;;;18.16;66.53;98705.33;1731731;82;21609;-43
2021/05/02 06:28:26;;;;;;;11.75;6.70;;;;;;;18.24;66.40;98697.13;1747701;82;21194;-43
2021/05/02 06:30:54;;;;;;;9.93;6.55;;;;;;;18.23;66.39;98703.21;1721337;82;21279;-43
2021/05/02 06:33:23;;;;;;;10.70;6.85;;;;;;;18.20;66.06;98705.42;1727570;82;21178;-43
2021/05/02 06:35:51;;;;;;;8.60;6.75;;;;;;;18.19;65.90;98712.72;1747940;82;21581;-43
2021/05/02 06:38:19;;;;;;;12.18;6.20;;;;;;;18.18;66.06;98712.55;1728601;82;21182;-43
2021/05/02 06:40:48;;;;;;;9.53;6.17;;;;;;;18.21;66.09;98724.03;1717795;83;21206;-43
2021/05/02 06:43:16;;;;;;;8.08;6.53;;;;;;;18.30;66.23;98722.09;1717804;83;21194;-43
2021/05/02 06:45:44;;;;;;;9.15;5.97;;;;;;;18.36;65.81;98725.86;1717797;83;21202;-43
2021/05/02 06:48:12;;;;;;;9.50;6.20;;;;;;;18.37;65.64;98722.69;1717910;83;21139;-43
2021/05/02 06:50:40;;;;;;;9.73;7.05;;;;;;;18.36;65.03;98732.12;1717840;82;21160;-43
2021/05/02 06:53:08;;;;;;;9.93;6.45;;;;;;;18.29;65.20;98750.13;1730362;82;21143;-43
2021/05/02 06:55:38;;;;;;;18.92;6.35;;;;;;;18.16;65.69;98760.97;1742880;82;22584;-43
2021/05/02 06:58:06;;;;;;;8.25;5.65;;;;;;;18.10;66.23;98753.69;1739408;82;21012;-43
2021/05/02 07:00:34;;;;;;;12.00;6.55;;;;;;;18.09;66.26;98748.02;1717964;82;21641;-43
2021/05/02 07:03:02;;;;;;;9.48;6.40;;;;;;;18.05;66.22;98752.22;1717836;83;21653;-43
2021/05/02 07:05:30;;;;;;;9.55;6.55;;;;;;;17.99;66.33;98754.50;1719530;82;21604;-43
2021/05/02 07:07:59;;;;;;;9.18;6.70;;;;;;;17.95;66.61;98749.69;1699788;82;21488;-43
2021/05/02 07:10:27;;;;;;;8.18;6.08;;;;;;;17.89;66.64;98759.59;1740434;82;21162;-43
2021/05/02 07:12:55;;;;;;;11.28;7.72;;;;;;;17.85;66.46;98750.67;1753029;81;21609;-43
2021/05/02 07:15:23;;;;;;;10.00;7.72;;;;;;;17.84;66.43;98754.61;1753084;81;21180;-43
2021/05/02 07:17:51;;;;;;;10.93;7.45;;;;;;;17.84;66.47;98748.53;1741369;81;21704;-43
2021/05/02 07:20:21;;;;;;;13.70;7.60;;;;;;;17.84;66.64;98743.05;1755037;81;22756;-43
2021/05/02 07:22:54;;;;;;;11.65;7.22;;;;;;;17.84;66.21;98747.16;1755383;81;21218;-43
2021/05/02 07:25:23;;;;;;;11.85;7.45;;;;;;;17.79;66.53;98744.31;1755389;81;21166;-43
2021/05/02 07:27:52;;;;;;;10.48;7.25;;;;;;;17.86;66.67;98742.03;1755708;81;21593;-43
2021/05/02 07:30:22;;;;;;;13.18;7.25;;;;;;;17.86;66.67;98742.03;1755416;81;21181;-43
2021/05/02 07:32:51;;;;;;;12.53;7.97;;;;;;;17.90;66.58;98728.24;1711397;81;21209;-43
2021/05/02 07:35:20;;;;;;;14.90;8.03;;;;;;;17.97;66.70;98726.70;1755515;81;21154;-43
2021/05/02 07:37:47;;;;;;;12.35;7.60;;;;;;;18.01;66.08;98727.43;1737481;81;21751;-43
2021/05/02 07:40:15;;;;;;;11.22;7.65;;;;;;;18.04;65.79;98725.20;1735619;81;21900;-43
2021/05/02 07:42:43;;;;;;;12.20;8.15;;;;;;;18.08;65.58;98727.27;1755544;81;21182;-43
2021/05/02 07:45:13;;;;;;;13.98;7.92;;;;;;;18.09;65.58;98725.47;1752533;81;22125;-43
2021/05/02 07:47:41;;;;;;;14.05;8.10;;;;;;;18.09;65.44;98719.21;1725588;83;21102;-43
2021/05/02 07:50:11;;;;;;;11.25;8.10;;;;;;;18.06;65.67;98713.19;1725513;81;21761;-43
2021/05/02 07:52:41;;;;;;;11.48;7.85;;;;;;;18.07;65.85;98710.63;1725529;83;21181;-43
2021/05/02 07:55:10;;;;;;;;;;;;;;;18.06;65.91;98720.82;1729350;81;21181;-43
2021/05/02 07:57:38;;;;;;;14.18;8.23;;;;;;;18.09;65.81;98713.73;1725441;83;21141;-43
2021/05/02 08:00:08;;;;;;;11.63;8.00;;;;;;;18.01;65.79;98712.34;1725439;81;22231;-43
2021/05/02 08:02:47;;;;;;;14.28;9.33;;;;;;;18.03;65.77;98708.56;1869267;76;22384;-42
2021/05/02 08:05:15;;;;;;;12.80;8.65;;;;;;;18.02;65.73;98719.35;1858836;77;20972;-42
2021/05/02 08:07:43;;;;;;;10.60;8.30;;;;;;;18.00;65.86;98723.91;1858721;77;21945;-42
2021/05/02 08:10:13;;;;;;;12.78;7.87;;;;;;;18.01;65.97;98713.72;1820083;78;21656;-42
2021/05/02 08:12:41;;;;;;;14.75;8.05;;;;;;;18.04;65.98;98704.63;1820926;78;21030;-42
2021/05/02 08:15:11;;;;;;;12.95;8.50;;;;;;;18.09;65.98;98700.02;1764487;80;21062;-42
2021/05/02 08:17:39;;;;;;;12.25;8.70;;;;;;;18.13;65.71;98707.56;1769818;81;21071;-42
2021/05/02 08:20:09;;;;;;;10.75;8.50;;;;;;;18.13;65.68;98705.59;1787261;79;21366;-42
2021/05/02 08:22:37;;;;;;;16.97;9.63;;;;;;;18.10;65.83;98713.91;1798870;79;21078;-42
2021/05/02 08:25:06;;;;;;;16.95;8.55;;;;;;;18.07;65.63;98703.77;1795383;79;21549;-41
2021/05/02 08:27:34;;;;;;;16.35;8.60;;;;;;;18.09;65.78;98691.78;1802113;79;20987;-42
2021/05/02 08:30:04;;;;;;;13.20;8.88;;;;;;;18.15;65.79;98687.34;1784166;79;20975;-42
2021/05/02 08:32:32;;;;;;;13.30;8.55;;;;;;;18.23;65.82;98675.00;1785049;79;21200;-41
2021/05/02 08:35:01;;;;;;;12.43;8.63;;;;;;;18.30;65.31;98682.31;1791071;79;21623;-41
2021/05/02 08:37:29;;;;;;;15.05;9.15;;;;;;;18.33;65.06;98680.07;1772338;79;21684;-41
2021/05/02 08:39:57;;;;;;;13.20;8.68;;;;;;;18.38;65.14;98687.20;1776533;79;21414;-41
2021/05/02 08:42:25;;;;;;;16.42;9.08;;;;;;;18.39;64.96;98687.38;1770143;81;21026;-41
2021/05/02 08:44:53;;;;;;;16.50;8.85;;;;;;;18.44;64.88;98684.13;1793836;79;21388;-41
2021/05/02 08:47:22;;;;;;;19.95;10.15;;;;;;;18.52;64.84;98681.97;1772844;79;21075;-41
2021/05/02 08:49:50;;;;;;;14.93;8.98;;;;;;;18.58;64.66;98690.67;1764887;80;21603;-41
2021/05/02 08:52:18;;;;;;;12.53;9.28;;;;;;;18.56;64.29;98686.20;1814482;78;21173;-41
2021/05/02 08:54:47;;;;;;;15.60;10.03;;;;;;;18.53;64.37;98685.70;1799049;78;21147;-41
2021/05/02 08:57:15;;;;;;;14.60;9.37;;;;;;;18.54;64.31;98683.72;1802711;78;21588;-41
2021/05/02 08:59:43;;;;;;;16.95;9.15;;;;;;;18.57;64.67;98684.23;1726582;81;21202;-41
2021/05/02 09:02:25;;;;;;;16.00;8.90;;;;;;;18.65;64.61;98680.88;1772171;80;21172;-41
2021/05/02 09:05:03;;;;;;;14.18;9.15;;;;;;;18.82;64.53;98680.88;1792003;79;21734;-41
2021/05/02 09:07:49;;;;;;;14.95;9.35;;;;;;;18.96;63.83;98673.05;1791979;80;21200;-41
2021/05/02 09:10:18;;;;;;;15.35;9.15;;;;;;;19.07;63.32;98674.14;1792435;79;21371;-41
2021/05/02 09:13:00;;;;;;;14.50;9.10;;;;;;;19.09;63.21;98669.74;1779425;80;21719;-41
2021/05/02 09:15:31;;;;;;;14.20;9.58;;;;;;;19.16;63.18;98657.80;1770201;80;21161;-41
2021/05/02 09:18:18;;;;;;;15.78;10.88;;;;;;;19.25;63.03;98648.33;1771044;79;21604;-41
2021/05/02 09:20:51;;;;;;;14.90;10.00;;;;;;;19.32;62.56;98639.09;1768670;80;21158;-41
2021/05/02 09:23:18;;;;;;;18.40;10.35;;;;;;;19.31;63.09;98629.33;1766378;79;21378;-41
2021/05/02 09:25:49;;;;;;;16.97;9.78;;;;;;;19.32;64.18;98623.98;1770994;80;21569;-41
2021/05/02 09:28:19;;;;;;;16.73;10.28;;;;;;;19.45;64.63;98625.60;1769610;80;21166;-41
2021/05/02 09:31:07;;;;;;;16.97;10.82;;;;;;;19.61;63.62;98625.33;1769516;81;21203;-41
2021/05/02 09:33:36;;;;;;;14.13;9.43;;;;;;;19.72;63.19;98621.07;1775903;80;21133;-41
2021/05/02 09:36:18;;;;;;;15.18;10.18;;;;;;;19.78;62.40;98608.33;1764476;80;21277;-41
2021/05/02 09:38:49;;;;;;;18.67;10.88;;;;;;;19.81;62.08;98602.53;1769722;81;21124;-41
2021/05/02 09:41:17;;;;;;;19.98;11.22;;;;;;;19.86;62.77;98600.02;1769678;81;20981;-41
2021/05/02 09:43:48;;;;;;;19.65;12.37;;;;;;;19.86;62.07;98592.36;1769872;81;21411;-41
2021/05/02 09:46:30;;;;;;;14.98;10.85;;;;;;;19.82;62.88;98593.08;1769567;80;21154;-41
2021/05/02 09:49:15;;;;;;;17.00;11.25;;;;;;;19.72;63.09;98591.42;1769739;81;21377;-41
2021/05/02 09:51:47;;;;;;;15.13;10.72;;;;;;;19.63;63.93;98587.95;1745434;81;21198;-41
2021/05/02 09:54:17;;;;;;;17.12;11.78;;;;;;;19.54;64.88;98583.72;1738451;82;21179;-41
2021/05/02 09:56:53;;;;;;;14.23;10.00;;;;;;;19.52;64.76;98584.14;1768369;80;21178;-41
2021/05/02 09:59:33;;;;;;;16.60;10.38;;;;;;;19.55;65.31;98574.87;1781242;80;21452;-41
2021/05/02 10:02:16;;;;;;;;;;;;;;;19.64;65.08;98579.11;1760537;80;21992;-41
2021/05/02 10:04:52;;;;;;;18.07;10.72;;;;;;;19.64;64.89;98584.00;1769769;80;20186;-41
2021/05/02 10:07:23;;;;;;;17.48;11.03;;;;;;;19.53;65.17;98611.81;1756863;80;21150;-41
2021/05/02 10:09:54;;;;;;;16.52;10.82;;;;;;;19.56;64.99;98621.78;1760031;81;21165;-41
2021/05/02 10:12:22;;;;;;;22.10;11.53;;;;;;;19.58;64.78;98623.47;1767523;80;21125;-41
2021/05/02 10:14:51;;;;;;;13.88;11.25;;;;;;;19.57;65.74;98605.42;1778016;80;21077;-41
2021/05/02 10:17:20;;;;;;;15.70;10.43;;;;;;;19.48;66.21;98608.83;1771789;80;21046;-41
2021/05/02 10:19:48;;;;;;;21.05;12.13;;;;;;;19.35;66.86;98606.63;1756393;81;21649;-41
2021/05/02 10:22:18;;;;;;;16.82;10.98;;;;;;;19.31;67.64;98607.34;1754214;80;21172;-41
2021/05/02 10:24:46;;;;;;;16.15;11.73;;;;;;;19.21;67.74;98602.31;1772146;80;21121;-41
2021/05/02 10:27:15;;;;;;;19.57;12.45;;;;;;;19.13;67.67;98601.55;1755651;79;21383;-41
2021/05/02 10:29:50;;;;;;;17.35;11.40;;;;;;;18.99;68.08;98606.84;1760174;81;21161;-40
2021/05/02 10:32:22;;;;;;;19.07;12.33;;;;;;;18.87;68.12;98614.44;1750637;81;21657;-41
2021/05/02 10:34:56;;;;;;;19.27;12.73;;;;;;;18.80;68.82;98616.76;1749122;79;21616;-41
2021/05/02 10:37:27;;;;;;;20.57;13.40;;;;;;;18.77;69.35;98619.00;1707008;81;21201;-41
2021/05/02 10:40:08;;;;;;;18.25;12.33;;;;;;;18.69;69.62;98625.12;1761761;81;22276;-41
2021/05/02 10:42:51;;;;;;;20.88;12.78;;;;;;;18.63;69.77;98621.52;1758004;81;21011;-41
2021/05/02 10:45:37;;;;;;;21.25;12.98;;;;;;;18.61;69.67;98625.88;1744787;81;21165;-40
2021/05/02 10:48:15;;;;;;;21.97;13.85;;;;;;;18.56;69.77;98634.64;1749300;81;21194;-40
2021/05/02 10:50:48;;;;;;;22.07;12.30;;;;;;;18.46;69.82;98639.16;1721515;82;21176;-41
2021/05/02 10:53:21;;;;;;;20.08;14.13;;;;;;;18.40;70.29;98629.11;1746331;81;21370;-41
2021/05/02 10:56:06;;;;;;;20.85;13.55;;;;;;;18.35;69.79;98626.29;1743217;81;21177;-41
2021/05/02 10:58:37;;;;;;;22.05;14.15;;;;;;;18.26;69.94;98627.48;1747245;81;21126;-41
2021/05/02 11:01:24;;;;;;;17.00;13.32;;;;;;;18.19;70.34;98634.53;1767463;81;21711;-41
2021/05/02 11:03:53;;;;;;;20.40;14.60;;;;;;;18.18;70.50;98624.75;1785616;80;21577;-41
2021/05/02 11:06:50;;;;;;;21.82;14.55;;;;;;;18.19;70.60;98630.42;1781875;80;21901;-41
2021/05/02 11:09:19;;;;;;;23.85;15.20;;;;;;;18.19;70.30;98629.05;1768247;80;21144;-41
2021/05/02 11:11:53;;;;;;;19.93;13.80;;;;;;;18.18;70.43;98623.38;1777529;80;20988;-40
2021/05/02 11:14:27;;;;;;;18.98;14.50;;;;;;;18.19;70.67;98618.07;1757783;79;21191;-41
2021/05/02 11:17:05;;;;;;;20.85;14.47;;;;;;;18.22;70.60;98620.72;1778779;80;21157;-41
2021/05/02 11:19:40;;;;;;;22.62;14.85;;;;;;;18.19;70.71;98615.33;1765848;80;21201;-41
2021/05/02 11:23:57;;;;;;;18.98;12.43;;;;;;;18.19;70.84;98611.98;1798241;79;23195;-41
2021/05/02 11:27:03;;;;;;;16.87;12.75;;;;;;;18.13;71.06;98617.80;1741881;80;21502;-41
2021/05/02 11:30:06;;;;;;;18.73;13.10;;;;;;;18.12;71.25;98620.97;1764278;80;21206;-41
2021/05/02 11:32:40;;;;;;;18.92;12.63;;;;;;;18.08;71.51;98608.72;1751541;80;21015;-41
2021/05/02 11:35:11;;;;;;;17.75;10.55;;;;;;;18.06;70.97;98606.21;1759149;80;21033;-41
2021/05/02 11:40:41;;;;;;;16.93;10.78;;;;;;;18.18;70.93;98599.46;1826251;78;22910;-41
2021/05/02 11:43:13;;;;;;;17.90;11.78;;;;;;;18.16;70.71;98596.37;1783546;80;21036;-41
2021/05/02 11:45:53;;;;;;;18.62;11.90;;;;;;;18.10;70.81;98603.59;1807118;78;21323;-41
2021/05/02 11:48:30;;;;;;;17.62;10.63;;;;;;;18.04;70.65;98593.54;1815717;79;21043;-41
2021/05/02 11:51:04;;;;;;;14.73;10.43;;;;;;;18.03;70.80;98582.39;1740686;82;20998;-41
2021/05/02 11:53:46;;;;;;;16.82;11.12;;;;;;;18.08;70.82;98577.77;1746771;82;20999;-41